sensor_id;sensor_type;location;lat;lon;timestamp;P1;durP1;ratioP1;P2;durP2;ratioP2
6505;SDS011;3286;49.858;8.768;2022-12-16T00:01:27;18.83;;;8.83;;
6505;SDS011;3286;49.858;8.768;2022-12-16T00:03:54;18.53;;;7.77;;
6505;SDS011;3286;49.858;8.768;2022-12-16T00:06:23;17.67;;;8.50;;
6505;SDS011;3286;49.858;8.768;2022-12-16T00:08:53;21.07;;;8.37;;
6505;SDS011;3286;49.858;8.768;2022-12-16T00:11:20;19.87;;;9.23;;
6505;SDS011;3286;49.858;8.768;2022-12-16T00:13:47;18.87;;;8.40;;
6505;SDS011;3286;49.858;8.768;2022-12-16T00:16:15;17.83;;;7.97;;
6505;SDS011;3286;49.858;8.768;2022-12-16T00:18:47;18.67;;;8.97;;
6505;SDS011;3286;49.858;8.768;2022-12-16T00:21:14;18.00;;;7.97;;
6505;SDS011;3286;49.858;8.768;2022-12-16T00:23:46;21.77;;;9.17;;
6505;SDS011;3286;49.858;8.768;2022-12-16T00:26:13;18.23;;;8.50;;
6505;SDS011;3286;49.858;8.768;2022-12-16T00:28:39;18.93;;;8.00;;
6505;SDS011;3286;49.858;8.768;2022-12-16T00:31:09;16.97;;;8.53;;
6505;SDS011;3286;49.858;8.768;2022-12-16T00:33:36;19.07;;;8.60;;
6505;SDS011;3286;49.858;8.768;2022-12-16T00:36:05;17.33;;;8.10;;
6505;SDS011;3286;49.858;8.768;2022-12-16T00:38:36;16.57;;;8.23;;
6505;SDS011;3286;49.858;8.768;2022-12-16T00:41:03;15.30;;;7.17;;
6505;SDS011;3286;49.858;8.768;2022-12-16T00:43:30;14.90;;;7.23;;
6505;SDS011;3286;49.858;8.768;2022-12-16T00:45:57;19.37;;;8.23;;
6505;SDS011;3286;49.858;8.768;2022-12-16T00:48:23;15.27;;;8.07;;
6505;SDS011;3286;49.858;8.768;2022-12-16T00:50:52;16.77;;;8.17;;
6505;SDS011;3286;49.858;8.768;2022-12-16T00:53:21;13.67;;;6.97;;
6505;SDS011;3286;49.858;8.768;2022-12-16T00:55:50;14.63;;;7.67;;
6505;SDS011;3286;49.858;8.768;2022-12-16T00:58:18;17.40;;;8.13;;
6505;SDS011;3286;49.858;8.768;2022-12-16T01:00:47;16.10;;;7.80;;
6505;SDS011;3286;49.858;8.768;2022-12-16T01:03:16;14.90;;;7.90;;
6505;SDS011;3286;49.858;8.768;2022-12-16T01:05:42;18.47;;;7.63;;
6505;SDS011;3286;49.858;8.768;2022-12-16T01:08:09;15.50;;;7.83;;
6505;SDS011;3286;49.858;8.768;2022-12-16T01:10:38;19.60;;;8.23;;
6505;SDS011;3286;49.858;8.768;2022-12-16T01:13:08;15.97;;;8.07;;
6505;SDS011;3286;49.858;8.768;2022-12-16T01:15:36;13.73;;;7.30;;
6505;SDS011;3286;49.858;8.768;2022-12-16T01:18:02;16.97;;;8.07;;
6505;SDS011;3286;49.858;8.768;2022-12-16T01:20:31;17.17;;;7.37;;
6505;SDS011;3286;49.858;8.768;2022-12-16T01:23:00;16.33;;;7.13;;
6505;SDS011;3286;49.858;8.768;2022-12-16T01:25:26;17.20;;;7.83;;
6505;SDS011;3286;49.858;8.768;2022-12-16T01:27:56;16.93;;;7.97;;
6505;SDS011;3286;49.858;8.768;2022-12-16T01:30:23;15.60;;;7.13;;
6505;SDS011;3286;49.858;8.768;2022-12-16T01:32:51;17.03;;;8.00;;
6505;SDS011;3286;49.858;8.768;2022-12-16T01:35:20;17.93;;;7.50;;
6505;SDS011;3286;49.858;8.768;2022-12-16T01:37:47;16.67;;;7.13;;
6505;SDS011;3286;49.858;8.768;2022-12-16T01:40:15;13.67;;;7.17;;
6505;SDS011;3286;49.858;8.768;2022-12-16T01:42:45;22.07;;;7.60;;
6505;SDS011;3286;49.858;8.768;2022-12-16T01:45:32;14.13;;;7.03;;
6505;SDS011;3286;49.858;8.768;2022-12-16T01:48:02;15.73;;;7.13;;
6505;SDS011;3286;49.858;8.768;2022-12-16T01:50:35;13.43;;;6.80;;
6505;SDS011;3286;49.858;8.768;2022-12-16T01:53:02;18.77;;;8.03;;
6505;SDS011;3286;49.858;8.768;2022-12-16T01:55:31;18.00;;;7.40;;
6505;SDS011;3286;49.858;8.768;2022-12-16T01:58:03;14.10;;;6.90;;
6505;SDS011;3286;49.858;8.768;2022-12-16T02:00:35;13.53;;;7.10;;
6505;SDS011;3286;49.858;8.768;2022-12-16T02:03:04;17.20;;;7.97;;
6505;SDS011;3286;49.858;8.768;2022-12-16T02:05:32;14.03;;;7.67;;
6505;SDS011;3286;49.858;8.768;2022-12-16T02:08:06;17.57;;;7.40;;
6505;SDS011;3286;49.858;8.768;2022-12-16T02:10:38;12.73;;;6.90;;
6505;SDS011;3286;49.858;8.768;2022-12-16T02:13:18;16.37;;;7.67;;
6505;SDS011;3286;49.858;8.768;2022-12-16T02:15:53;20.60;;;7.67;;
6505;SDS011;3286;49.858;8.768;2022-12-16T02:18:30;20.90;;;8.07;;
6505;SDS011;3286;49.858;8.768;2022-12-16T02:21:17;18.70;;;7.80;;
6505;SDS011;3286;49.858;8.768;2022-12-16T02:33:12;18.00;;;6.30;;
6505;SDS011;3286;49.858;8.768;2022-12-16T02:35:54;11.20;;;6.83;;
6505;SDS011;3286;49.858;8.768;2022-12-16T02:38:29;12.53;;;7.13;;
6505;SDS011;3286;49.858;8.768;2022-12-16T02:41:00;15.33;;;7.33;;
6505;SDS011;3286;49.858;8.768;2022-12-16T02:43:42;12.90;;;6.63;;
6505;SDS011;3286;49.858;8.768;2022-12-16T02:46:16;13.90;;;7.13;;
6505;SDS011;3286;49.858;8.768;2022-12-16T02:48:48;13.83;;;7.33;;
6505;SDS011;3286;49.858;8.768;2022-12-16T02:51:15;14.47;;;7.23;;
6505;SDS011;3286;49.858;8.768;2022-12-16T02:53:42;14.93;;;6.60;;
6505;SDS011;3286;49.858;8.768;2022-12-16T02:56:17;16.33;;;7.60;;
6505;SDS011;3286;49.858;8.768;2022-12-16T02:59:01;13.93;;;6.83;;
6505;SDS011;3286;49.858;8.768;2022-12-16T03:01:40;10.33;;;6.33;;
6505;SDS011;3286;49.858;8.768;2022-12-16T03:04:30;14.40;;;7.47;;
6505;SDS011;3286;49.858;8.768;2022-12-16T03:07:02;18.30;;;7.40;;
6505;SDS011;3286;49.858;8.768;2022-12-16T03:09:33;13.10;;;7.23;;
6505;SDS011;3286;49.858;8.768;2022-12-16T03:12:05;14.03;;;7.53;;
6505;SDS011;3286;49.858;8.768;2022-12-16T03:14:35;16.20;;;7.47;;
6505;SDS011;3286;49.858;8.768;2022-12-16T03:17:07;13.17;;;6.37;;
6505;SDS011;3286;49.858;8.768;2022-12-16T03:19:36;13.10;;;6.60;;
6505;SDS011;3286;49.858;8.768;2022-12-16T03:22:07;13.97;;;6.47;;
6505;SDS011;3286;49.858;8.768;2022-12-16T03:24:37;16.97;;;6.37;;
6505;SDS011;3286;49.858;8.768;2022-12-16T03:27:11;12.60;;;6.27;;
6505;SDS011;3286;49.858;8.768;2022-12-16T03:29:44;16.40;;;7.00;;
6505;SDS011;3286;49.858;8.768;2022-12-16T03:32:20;15.07;;;6.77;;
6505;SDS011;3286;49.858;8.768;2022-12-16T03:34:52;14.83;;;6.87;;
6505;SDS011;3286;49.858;8.768;2022-12-16T03:37:26;12.63;;;6.63;;
6505;SDS011;3286;49.858;8.768;2022-12-16T03:39:57;12.43;;;6.77;;
6505;SDS011;3286;49.858;8.768;2022-12-16T03:42:26;14.90;;;6.97;;
6505;SDS011;3286;49.858;8.768;2022-12-16T03:44:58;15.17;;;6.17;;
6505;SDS011;3286;49.858;8.768;2022-12-16T03:47:24;13.70;;;7.30;;
6505;SDS011;3286;49.858;8.768;2022-12-16T03:49:54;13.10;;;6.30;;
6505;SDS011;3286;49.858;8.768;2022-12-16T03:52:21;9.57;;;6.03;;
6505;SDS011;3286;49.858;8.768;2022-12-16T03:54:47;9.63;;;5.63;;
6505;SDS011;3286;49.858;8.768;2022-12-16T03:57:14;12.67;;;5.83;;
6505;SDS011;3286;49.858;8.768;2022-12-16T03:59:40;13.20;;;6.30;;
6505;SDS011;3286;49.858;8.768;2022-12-16T04:02:07;11.27;;;5.90;;
6505;SDS011;3286;49.858;8.768;2022-12-16T04:04:36;14.03;;;6.90;;
6505;SDS011;3286;49.858;8.768;2022-12-16T04:07:03;10.53;;;5.50;;
6505;SDS011;3286;49.858;8.768;2022-12-16T04:09:49;10.57;;;5.70;;
6505;SDS011;3286;49.858;8.768;2022-12-16T04:12:17;13.47;;;5.67;;
6505;SDS011;3286;49.858;8.768;2022-12-16T04:15:01;11.53;;;5.80;;
6505;SDS011;3286;49.858;8.768;2022-12-16T04:17:46;9.53;;;5.30;;
6505;SDS011;3286;49.858;8.768;2022-12-16T04:20:31;11.00;;;5.57;;
6505;SDS011;3286;49.858;8.768;2022-12-16T04:23:19;8.83;;;5.17;;
6505;SDS011;3286;49.858;8.768;2022-12-16T04:26:09;11.43;;;5.87;;
6505;SDS011;3286;49.858;8.768;2022-12-16T04:28:41;10.27;;;5.47;;
6505;SDS011;3286;49.858;8.768;2022-12-16T04:31:09;11.37;;;5.10;;
6505;SDS011;3286;49.858;8.768;2022-12-16T04:33:37;8.80;;;5.00;;
6505;SDS011;3286;49.858;8.768;2022-12-16T04:36:22;12.57;;;6.03;;
6505;SDS011;3286;49.858;8.768;2022-12-16T04:39:07;9.00;;;4.67;;
6505;SDS011;3286;49.858;8.768;2022-12-16T04:41:51;9.00;;;5.37;;
6505;SDS011;3286;49.858;8.768;2022-12-16T04:44:36;10.27;;;5.03;;
6505;SDS011;3286;49.858;8.768;2022-12-16T04:47:25;10.00;;;5.17;;
6505;SDS011;3286;49.858;8.768;2022-12-16T04:50:11;14.10;;;5.83;;
6505;SDS011;3286;49.858;8.768;2022-12-16T04:52:55;7.83;;;5.03;;
6505;SDS011;3286;49.858;8.768;2022-12-16T04:55:45;10.43;;;4.93;;
6505;SDS011;3286;49.858;8.768;2022-12-16T04:58:29;10.90;;;5.57;;
6505;SDS011;3286;49.858;8.768;2022-12-16T05:01:13;10.50;;;5.13;;
6505;SDS011;3286;49.858;8.768;2022-12-16T05:03:57;11.40;;;5.53;;
6505;SDS011;3286;49.858;8.768;2022-12-16T05:06:44;9.23;;;4.80;;
6505;SDS011;3286;49.858;8.768;2022-12-16T05:09:28;13.00;;;5.83;;
6505;SDS011;3286;49.858;8.768;2022-12-16T05:12:13;10.90;;;5.40;;
6505;SDS011;3286;49.858;8.768;2022-12-16T05:14:58;10.17;;;5.33;;
6505;SDS011;3286;49.858;8.768;2022-12-16T05:17:43;10.90;;;5.63;;
6505;SDS011;3286;49.858;8.768;2022-12-16T05:20:27;9.37;;;5.63;;
6505;SDS011;3286;49.858;8.768;2022-12-16T05:23:11;10.77;;;5.23;;
6505;SDS011;3286;49.858;8.768;2022-12-16T05:25:58;8.47;;;4.67;;
6505;SDS011;3286;49.858;8.768;2022-12-16T05:28:43;10.97;;;5.50;;
6505;SDS011;3286;49.858;8.768;2022-12-16T05:31:27;8.93;;;5.03;;
6505;SDS011;3286;49.858;8.768;2022-12-16T05:34:13;13.77;;;6.10;;
6505;SDS011;3286;49.858;8.768;2022-12-16T05:37:00;11.30;;;5.07;;
6505;SDS011;3286;49.858;8.768;2022-12-16T05:39:53;11.63;;;6.40;;
6505;SDS011;3286;49.858;8.768;2022-12-16T05:42:37;14.70;;;6.03;;
6505;SDS011;3286;49.858;8.768;2022-12-16T05:45:22;10.57;;;4.90;;
6505;SDS011;3286;49.858;8.768;2022-12-16T05:48:06;11.93;;;5.10;;
6505;SDS011;3286;49.858;8.768;2022-12-16T05:51:02;10.27;;;4.57;;
6505;SDS011;3286;49.858;8.768;2022-12-16T05:53:46;7.77;;;4.70;;
6505;SDS011;3286;49.858;8.768;2022-12-16T05:56:30;9.47;;;5.57;;
6505;SDS011;3286;49.858;8.768;2022-12-16T05:59:14;14.00;;;5.60;;
6505;SDS011;3286;49.858;8.768;2022-12-16T06:01:59;8.77;;;5.07;;
6505;SDS011;3286;49.858;8.768;2022-12-16T06:04:43;10.17;;;5.83;;
6505;SDS011;3286;49.858;8.768;2022-12-16T06:07:27;10.57;;;4.80;;
6505;SDS011;3286;49.858;8.768;2022-12-16T06:10:11;10.47;;;4.67;;
6505;SDS011;3286;49.858;8.768;2022-12-16T06:12:57;9.17;;;4.23;;
6505;SDS011;3286;49.858;8.768;2022-12-16T06:15:43;9.80;;;5.17;;
6505;SDS011;3286;49.858;8.768;2022-12-16T06:18:31;7.80;;;5.00;;
6505;SDS011;3286;49.858;8.768;2022-12-16T06:21:17;10.03;;;4.97;;
6505;SDS011;3286;49.858;8.768;2022-12-16T06:24:05;11.73;;;4.80;;
6505;SDS011;3286;49.858;8.768;2022-12-16T06:26:49;7.60;;;4.77;;
6505;SDS011;3286;49.858;8.768;2022-12-16T06:29:33;9.43;;;4.63;;
6505;SDS011;3286;49.858;8.768;2022-12-16T06:32:19;5.60;;;4.00;;
6505;SDS011;3286;49.858;8.768;2022-12-16T06:35:05;11.57;;;4.93;;
6505;SDS011;3286;49.858;8.768;2022-12-16T06:37:51;8.73;;;5.27;;
6505;SDS011;3286;49.858;8.768;2022-12-16T06:40:36;11.77;;;5.53;;
6505;SDS011;3286;49.858;8.768;2022-12-16T06:43:23;13.17;;;5.33;;
6505;SDS011;3286;49.858;8.768;2022-12-16T06:46:09;8.97;;;4.20;;
6505;SDS011;3286;49.858;8.768;2022-12-16T06:48:53;8.70;;;5.40;;
6505;SDS011;3286;49.858;8.768;2022-12-16T06:51:38;9.83;;;4.53;;
6505;SDS011;3286;49.858;8.768;2022-12-16T06:54:26;10.50;;;5.17;;
6505;SDS011;3286;49.858;8.768;2022-12-16T06:57:10;8.33;;;4.27;;
6505;SDS011;3286;49.858;8.768;2022-12-16T06:59:54;8.60;;;4.27;;
6505;SDS011;3286;49.858;8.768;2022-12-16T07:02:38;11.23;;;4.90;;
6505;SDS011;3286;49.858;8.768;2022-12-16T07:05:22;13.03;;;5.07;;
6505;SDS011;3286;49.858;8.768;2022-12-16T07:08:10;10.53;;;4.60;;
6505;SDS011;3286;49.858;8.768;2022-12-16T07:10:54;10.37;;;5.60;;
6505;SDS011;3286;49.858;8.768;2022-12-16T07:13:38;8.47;;;5.20;;
6505;SDS011;3286;49.858;8.768;2022-12-16T07:16:22;7.87;;;4.53;;
6505;SDS011;3286;49.858;8.768;2022-12-16T07:19:08;11.03;;;5.47;;
6505;SDS011;3286;49.858;8.768;2022-12-16T07:21:52;11.20;;;5.90;;
6505;SDS011;3286;49.858;8.768;2022-12-16T07:24:41;10.63;;;5.47;;
6505;SDS011;3286;49.858;8.768;2022-12-16T07:27:24;10.47;;;5.27;;
6505;SDS011;3286;49.858;8.768;2022-12-16T07:30:09;8.13;;;5.27;;
6505;SDS011;3286;49.858;8.768;2022-12-16T07:32:54;10.87;;;5.57;;
6505;SDS011;3286;49.858;8.768;2022-12-16T07:35:41;13.73;;;6.37;;
6505;SDS011;3286;49.858;8.768;2022-12-16T07:38:25;10.93;;;5.27;;
6505;SDS011;3286;49.858;8.768;2022-12-16T07:41:14;11.47;;;5.57;;
6505;SDS011;3286;49.858;8.768;2022-12-16T07:44:00;13.27;;;6.23;;
6505;SDS011;3286;49.858;8.768;2022-12-16T07:46:52;15.67;;;6.77;;
6505;SDS011;3286;49.858;8.768;2022-12-16T07:49:38;17.83;;;7.07;;
6505;SDS011;3286;49.858;8.768;2022-12-16T07:52:24;15.97;;;6.30;;
6505;SDS011;3286;49.858;8.768;2022-12-16T07:55:10;10.43;;;5.37;;
6505;SDS011;3286;49.858;8.768;2022-12-16T07:57:57;6.90;;;4.63;;
6505;SDS011;3286;49.858;8.768;2022-12-16T08:00:41;9.40;;;5.13;;
6505;SDS011;3286;49.858;8.768;2022-12-16T08:03:25;9.37;;;5.10;;
6505;SDS011;3286;49.858;8.768;2022-12-16T08:06:09;10.13;;;5.00;;
6505;SDS011;3286;49.858;8.768;2022-12-16T08:08:53;12.83;;;5.70;;
6505;SDS011;3286;49.858;8.768;2022-12-16T08:11:38;9.37;;;4.80;;
6505;SDS011;3286;49.858;8.768;2022-12-16T08:14:23;9.97;;;4.73;;
6505;SDS011;3286;49.858;8.768;2022-12-16T08:17:09;11.20;;;5.07;;
6505;SDS011;3286;49.858;8.768;2022-12-16T08:19:52;8.70;;;5.20;;
6505;SDS011;3286;49.858;8.768;2022-12-16T08:22:38;9.83;;;4.93;;
6505;SDS011;3286;49.858;8.768;2022-12-16T08:25:23;9.97;;;4.97;;
6505;SDS011;3286;49.858;8.768;2022-12-16T08:28:07;9.80;;;5.80;;
6505;SDS011;3286;49.858;8.768;2022-12-16T08:30:53;9.63;;;5.57;;
6505;SDS011;3286;49.858;8.768;2022-12-16T08:33:37;8.60;;;4.93;;
6505;SDS011;3286;49.858;8.768;2022-12-16T08:36:21;16.00;;;5.60;;
6505;SDS011;3286;49.858;8.768;2022-12-16T08:39:04;11.63;;;5.43;;
6505;SDS011;3286;49.858;8.768;2022-12-16T08:41:49;12.40;;;6.00;;
6505;SDS011;3286;49.858;8.768;2022-12-16T08:44:33;12.27;;;5.83;;
6505;SDS011;3286;49.858;8.768;2022-12-16T08:47:18;9.43;;;4.77;;
6505;SDS011;3286;49.858;8.768;2022-12-16T08:50:02;13.30;;;6.07;;
6505;SDS011;3286;49.858;8.768;2022-12-16T08:52:47;9.83;;;5.80;;
6505;SDS011;3286;49.858;8.768;2022-12-16T08:55:31;13.23;;;6.37;;
6505;SDS011;3286;49.858;8.768;2022-12-16T08:58:18;14.73;;;6.30;;
6505;SDS011;3286;49.858;8.768;2022-12-16T09:01:02;19.80;;;6.63;;
6505;SDS011;3286;49.858;8.768;2022-12-16T09:03:49;12.00;;;6.30;;
6505;SDS011;3286;49.858;8.768;2022-12-16T09:06:33;11.07;;;5.87;;
6505;SDS011;3286;49.858;8.768;2022-12-16T09:09:17;12.83;;;6.70;;
6505;SDS011;3286;49.858;8.768;2022-12-16T09:12:01;12.40;;;6.63;;
6505;SDS011;3286;49.858;8.768;2022-12-16T09:14:47;11.17;;;5.37;;
6505;SDS011;3286;49.858;8.768;2022-12-16T09:17:33;12.90;;;6.43;;
6505;SDS011;3286;49.858;8.768;2022-12-16T09:20:25;11.30;;;6.27;;
6505;SDS011;3286;49.858;8.768;2022-12-16T09:23:15;12.20;;;6.23;;
6505;SDS011;3286;49.858;8.768;2022-12-16T09:25:59;11.53;;;6.20;;
6505;SDS011;3286;49.858;8.768;2022-12-16T09:28:43;13.63;;;6.97;;
6505;SDS011;3286;49.858;8.768;2022-12-16T09:31:27;9.97;;;6.13;;
6505;SDS011;3286;49.858;8.768;2022-12-16T09:34:11;13.40;;;6.77;;
6505;SDS011;3286;49.858;8.768;2022-12-16T09:37:02;14.57;;;7.10;;
6505;SDS011;3286;49.858;8.768;2022-12-16T09:39:48;10.17;;;5.80;;
6505;SDS011;3286;49.858;8.768;2022-12-16T09:42:34;12.67;;;7.03;;
6505;SDS011;3286;49.858;8.768;2022-12-16T09:45:30;13.50;;;6.93;;
6505;SDS011;3286;49.858;8.768;2022-12-16T09:48:21;11.93;;;6.97;;
6505;SDS011;3286;49.858;8.768;2022-12-16T09:51:15;13.67;;;6.80;;
6505;SDS011;3286;49.858;8.768;2022-12-16T09:54:01;12.40;;;6.67;;
6505;SDS011;3286;49.858;8.768;2022-12-16T09:56:45;13.30;;;7.43;;
6505;SDS011;3286;49.858;8.768;2022-12-16T09:59:33;13.03;;;7.43;;
6505;SDS011;3286;49.858;8.768;2022-12-16T10:02:22;14.63;;;8.53;;
6505;SDS011;3286;49.858;8.768;2022-12-16T10:05:08;10.17;;;6.47;;
6505;SDS011;3286;49.858;8.768;2022-12-16T10:07:55;13.93;;;7.40;;
6505;SDS011;3286;49.858;8.768;2022-12-16T10:10:59;16.77;;;8.90;;
6505;SDS011;3286;49.858;8.768;2022-12-16T10:13:52;14.63;;;7.77;;
6505;SDS011;3286;49.858;8.768;2022-12-16T10:16:43;12.13;;;6.87;;
6505;SDS011;3286;49.858;8.768;2022-12-16T10:19:40;14.17;;;7.70;;
6505;SDS011;3286;49.858;8.768;2022-12-16T10:22:33;11.87;;;6.67;;
6505;SDS011;3286;49.858;8.768;2022-12-16T10:25:25;12.47;;;7.63;;
6505;SDS011;3286;49.858;8.768;2022-12-16T10:28:34;14.37;;;7.27;;
6505;SDS011;3286;49.858;8.768;2022-12-16T10:31:27;10.93;;;7.30;;
6505;SDS011;3286;49.858;8.768;2022-12-16T10:34:13;16.93;;;9.30;;
6505;SDS011;3286;49.858;8.768;2022-12-16T10:37:01;15.33;;;7.97;;
6505;SDS011;3286;49.858;8.768;2022-12-16T10:39:45;15.67;;;7.83;;
6505;SDS011;3286;49.858;8.768;2022-12-16T10:42:39;20.57;;;8.57;;
6505;SDS011;3286;49.858;8.768;2022-12-16T10:45:30;16.60;;;9.33;;
6505;SDS011;3286;49.858;8.768;2022-12-16T10:48:25;19.13;;;9.27;;
6505;SDS011;3286;49.858;8.768;2022-12-16T10:51:12;14.97;;;8.40;;
6505;SDS011;3286;49.858;8.768;2022-12-16T10:53:59;13.40;;;8.00;;
6505;SDS011;3286;49.858;8.768;2022-12-16T10:56:54;14.63;;;7.97;;
6505;SDS011;3286;49.858;8.768;2022-12-16T10:59:43;18.10;;;8.63;;
6505;SDS011;3286;49.858;8.768;2022-12-16T11:02:31;13.43;;;8.37;;
6505;SDS011;3286;49.858;8.768;2022-12-16T11:05:22;13.47;;;7.70;;
6505;SDS011;3286;49.858;8.768;2022-12-16T11:08:24;17.37;;;8.37;;
6505;SDS011;3286;49.858;8.768;2022-12-16T11:11:13;13.53;;;7.57;;
6505;SDS011;3286;49.858;8.768;2022-12-16T11:14:16;15.67;;;7.73;;
6505;SDS011;3286;49.858;8.768;2022-12-16T11:17:14;15.83;;;8.63;;
6505;SDS011;3286;49.858;8.768;2022-12-16T11:20:15;15.03;;;8.07;;
6505;SDS011;3286;49.858;8.768;2022-12-16T11:23:15;15.50;;;7.77;;
6505;SDS011;3286;49.858;8.768;2022-12-16T11:26:07;11.33;;;7.63;;
6505;SDS011;3286;49.858;8.768;2022-12-16T11:29:01;13.13;;;7.40;;
6505;SDS011;3286;49.858;8.768;2022-12-16T11:31:47;12.03;;;7.93;;
6505;SDS011;3286;49.858;8.768;2022-12-16T11:34:38;11.77;;;7.47;;
6505;SDS011;3286;49.858;8.768;2022-12-16T11:37:24;13.07;;;7.43;;
6505;SDS011;3286;49.858;8.768;2022-12-16T11:40:12;18.07;;;8.40;;
6505;SDS011;3286;49.858;8.768;2022-12-16T11:42:59;16.50;;;8.40;;
6505;SDS011;3286;49.858;8.768;2022-12-16T11:45:45;14.17;;;8.07;;
6505;SDS011;3286;49.858;8.768;2022-12-16T11:48:30;13.60;;;7.80;;
6505;SDS011;3286;49.858;8.768;2022-12-16T11:51:24;13.07;;;7.10;;
6505;SDS011;3286;49.858;8.768;2022-12-16T11:54:13;11.93;;;6.77;;
6505;SDS011;3286;49.858;8.768;2022-12-16T11:57:11;10.60;;;6.40;;
6505;SDS011;3286;49.858;8.768;2022-12-16T12:00:02;15.97;;;6.87;;
6505;SDS011;3286;49.858;8.768;2022-12-16T12:02:54;10.20;;;5.70;;
6505;SDS011;3286;49.858;8.768;2022-12-16T12:05:42;11.33;;;5.30;;
6505;SDS011;3286;49.858;8.768;2022-12-16T12:08:39;8.00;;;5.07;;
6505;SDS011;3286;49.858;8.768;2022-12-16T12:11:30;7.70;;;5.47;;
6505;SDS011;3286;49.858;8.768;2022-12-16T12:14:28;10.10;;;5.33;;
6505;SDS011;3286;49.858;8.768;2022-12-16T12:17:19;10.87;;;5.20;;
6505;SDS011;3286;49.858;8.768;2022-12-16T12:20:24;8.97;;;5.30;;
6505;SDS011;3286;49.858;8.768;2022-12-16T12:23:17;10.63;;;5.23;;
6505;SDS011;3286;49.858;8.768;2022-12-16T12:26:15;8.10;;;5.10;;
6505;SDS011;3286;49.858;8.768;2022-12-16T12:29:08;7.27;;;4.70;;
6505;SDS011;3286;49.858;8.768;2022-12-16T12:31:58;6.77;;;4.43;;
6505;SDS011;3286;49.858;8.768;2022-12-16T12:34:55;9.53;;;5.07;;
6505;SDS011;3286;49.858;8.768;2022-12-16T12:37:49;7.47;;;4.30;;
6505;SDS011;3286;49.858;8.768;2022-12-16T12:40:43;8.77;;;5.00;;
6505;SDS011;3286;49.858;8.768;2022-12-16T12:43:37;6.63;;;4.37;;
6505;SDS011;3286;49.858;8.768;2022-12-16T12:46:32;8.40;;;5.13;;
6505;SDS011;3286;49.858;8.768;2022-12-16T12:49:31;9.80;;;5.03;;
6505;SDS011;3286;49.858;8.768;2022-12-16T12:52:23;6.83;;;4.73;;
6505;SDS011;3286;49.858;8.768;2022-12-16T12:55:28;9.03;;;4.70;;
6505;SDS011;3286;49.858;8.768;2022-12-16T12:58:18;6.73;;;4.70;;
6505;SDS011;3286;49.858;8.768;2022-12-16T13:01:05;9.40;;;4.43;;
6505;SDS011;3286;49.858;8.768;2022-12-16T13:03:52;11.37;;;5.03;;
6505;SDS011;3286;49.858;8.768;2022-12-16T13:06:41;9.53;;;5.30;;
6505;SDS011;3286;49.858;8.768;2022-12-16T13:09:31;7.17;;;4.67;;
6505;SDS011;3286;49.858;8.768;2022-12-16T13:12:21;6.47;;;4.60;;
6505;SDS011;3286;49.858;8.768;2022-12-16T13:15:16;7.70;;;4.63;;
6505;SDS011;3286;49.858;8.768;2022-12-16T13:18:23;8.70;;;5.00;;
6505;SDS011;3286;49.858;8.768;2022-12-16T13:24:42;7.97;;;4.77;;
6505;SDS011;3286;49.858;8.768;2022-12-16T13:27:34;6.60;;;4.57;;
6505;SDS011;3286;49.858;8.768;2022-12-16T13:30:29;8.90;;;4.80;;
6505;SDS011;3286;49.858;8.768;2022-12-16T13:33:27;10.33;;;5.20;;
6505;SDS011;3286;49.858;8.768;2022-12-16T13:36:19;8.47;;;4.77;;
6505;SDS011;3286;49.858;8.768;2022-12-16T13:39:22;9.87;;;4.83;;
6505;SDS011;3286;49.858;8.768;2022-12-16T13:45:28;8.07;;;4.43;;
6505;SDS011;3286;49.858;8.768;2022-12-16T13:55:06;9.83;;;4.43;;
6505;SDS011;3286;49.858;8.768;2022-12-16T13:58:00;8.07;;;4.70;;
6505;SDS011;3286;49.858;8.768;2022-12-16T14:00:56;9.23;;;5.20;;
6505;SDS011;3286;49.858;8.768;2022-12-16T14:03:46;8.37;;;5.13;;
6505;SDS011;3286;49.858;8.768;2022-12-16T14:06:36;9.83;;;5.27;;
6505;SDS011;3286;49.858;8.768;2022-12-16T14:09:37;8.20;;;5.13;;
6505;SDS011;3286;49.858;8.768;2022-12-16T14:12:41;8.93;;;4.97;;
6505;SDS011;3286;49.858;8.768;2022-12-16T14:15:31;11.43;;;5.40;;
6505;SDS011;3286;49.858;8.768;2022-12-16T14:18:27;6.40;;;4.53;;
6505;SDS011;3286;49.858;8.768;2022-12-16T14:21:24;11.43;;;5.57;;
6505;SDS011;3286;49.858;8.768;2022-12-16T14:24:16;9.40;;;5.63;;
6505;SDS011;3286;49.858;8.768;2022-12-16T14:27:12;8.70;;;5.17;;
6505;SDS011;3286;49.858;8.768;2022-12-16T14:30:11;11.47;;;5.20;;
6505;SDS011;3286;49.858;8.768;2022-12-16T14:33:13;8.70;;;4.70;;
6505;SDS011;3286;49.858;8.768;2022-12-16T14:35:58;9.83;;;5.53;;
6505;SDS011;3286;49.858;8.768;2022-12-16T14:38:56;9.13;;;5.17;;
6505;SDS011;3286;49.858;8.768;2022-12-16T14:41:40;8.43;;;5.30;;
6505;SDS011;3286;49.858;8.768;2022-12-16T14:44:25;11.70;;;5.50;;
6505;SDS011;3286;49.858;8.768;2022-12-16T14:47:15;8.80;;;4.77;;
6505;SDS011;3286;49.858;8.768;2022-12-16T14:50:03;9.97;;;5.43;;
6505;SDS011;3286;49.858;8.768;2022-12-16T14:53:05;5.63;;;4.37;;
6505;SDS011;3286;49.858;8.768;2022-12-16T14:56:17;11.00;;;6.00;;
6505;SDS011;3286;49.858;8.768;2022-12-16T15:02:11;9.93;;;5.70;;
6505;SDS011;3286;49.858;8.768;2022-12-16T15:05:05;10.13;;;6.30;;
6505;SDS011;3286;49.858;8.768;2022-12-16T15:07:50;8.20;;;5.23;;
6505;SDS011;3286;49.858;8.768;2022-12-16T15:10:34;12.87;;;5.70;;
6505;SDS011;3286;49.858;8.768;2022-12-16T15:13:22;12.83;;;5.77;;
6505;SDS011;3286;49.858;8.768;2022-12-16T15:16:10;10.33;;;6.23;;
6505;SDS011;3286;49.858;8.768;2022-12-16T15:18:59;11.53;;;5.90;;
6505;SDS011;3286;49.858;8.768;2022-12-16T15:21:45;11.73;;;6.20;;
6505;SDS011;3286;49.858;8.768;2022-12-16T15:24:33;9.27;;;5.10;;
6505;SDS011;3286;49.858;8.768;2022-12-16T15:27:24;11.77;;;5.97;;
6505;SDS011;3286;49.858;8.768;2022-12-16T15:33:21;11.93;;;5.80;;
6505;SDS011;3286;49.858;8.768;2022-12-16T15:36:12;9.87;;;4.97;;
6505;SDS011;3286;49.858;8.768;2022-12-16T15:39:08;8.57;;;5.00;;
6505;SDS011;3286;49.858;8.768;2022-12-16T15:41:53;10.40;;;5.33;;
6505;SDS011;3286;49.858;8.768;2022-12-16T15:44:37;15.90;;;6.07;;
6505;SDS011;3286;49.858;8.768;2022-12-16T15:47:30;10.87;;;5.80;;
6505;SDS011;3286;49.858;8.768;2022-12-16T15:50:18;9.80;;;5.00;;
6505;SDS011;3286;49.858;8.768;2022-12-16T15:53:14;9.80;;;5.07;;
6505;SDS011;3286;49.858;8.768;2022-12-16T15:56:15;9.17;;;5.20;;
6505;SDS011;3286;49.858;8.768;2022-12-16T15:59:13;9.77;;;5.07;;
6505;SDS011;3286;49.858;8.768;2022-12-16T16:02:05;8.60;;;5.20;;
6505;SDS011;3286;49.858;8.768;2022-12-16T16:04:57;8.47;;;5.40;;
6505;SDS011;3286;49.858;8.768;2022-12-16T16:07:42;12.40;;;5.93;;
6505;SDS011;3286;49.858;8.768;2022-12-16T16:10:26;10.30;;;5.80;;
6505;SDS011;3286;49.858;8.768;2022-12-16T16:13:10;10.50;;;5.87;;
6505;SDS011;3286;49.858;8.768;2022-12-16T16:15:54;9.73;;;5.50;;
6505;SDS011;3286;49.858;8.768;2022-12-16T16:18:40;9.07;;;5.63;;
6505;SDS011;3286;49.858;8.768;2022-12-16T16:21:26;9.00;;;5.57;;
6505;SDS011;3286;49.858;8.768;2022-12-16T16:24:11;9.63;;;6.13;;
6505;SDS011;3286;49.858;8.768;2022-12-16T16:26:58;10.53;;;5.60;;
6505;SDS011;3286;49.858;8.768;2022-12-16T16:29:50;11.80;;;5.63;;
6505;SDS011;3286;49.858;8.768;2022-12-16T16:32:34;10.30;;;5.67;;
6505;SDS011;3286;49.858;8.768;2022-12-16T16:35:22;10.87;;;5.60;;
6505;SDS011;3286;49.858;8.768;2022-12-16T16:38:10;10.93;;;6.03;;
6505;SDS011;3286;49.858;8.768;2022-12-16T16:40:55;8.50;;;5.17;;
6505;SDS011;3286;49.858;8.768;2022-12-16T16:43:41;11.47;;;6.00;;
6505;SDS011;3286;49.858;8.768;2022-12-16T16:46:32;15.20;;;6.97;;
6505;SDS011;3286;49.858;8.768;2022-12-16T16:49:21;12.53;;;6.97;;
6505;SDS011;3286;49.858;8.768;2022-12-16T16:52:10;11.73;;;6.07;;
6505;SDS011;3286;49.858;8.768;2022-12-16T16:55:02;11.57;;;6.73;;
6505;SDS011;3286;49.858;8.768;2022-12-16T16:57:51;10.37;;;6.43;;
6505;SDS011;3286;49.858;8.768;2022-12-16T17:00:35;11.97;;;6.30;;
6505;SDS011;3286;49.858;8.768;2022-12-16T17:03:19;10.53;;;5.97;;
6505;SDS011;3286;49.858;8.768;2022-12-16T17:06:03;10.33;;;6.30;;
6505;SDS011;3286;49.858;8.768;2022-12-16T17:08:48;12.97;;;6.60;;
6505;SDS011;3286;49.858;8.768;2022-12-16T17:11:36;13.30;;;6.50;;
6505;SDS011;3286;49.858;8.768;2022-12-16T17:14:21;10.17;;;6.33;;
6505;SDS011;3286;49.858;8.768;2022-12-16T17:17:07;11.97;;;6.57;;